Time;durP1;ratioP1;P1;durP2;ratioP2;P2;SDS_P1;SDS_P2;PMS_P1;PMS_P2;Temp;Humidity;BMP_temperature;BMP_pressure;BME280_temperature;BME280_humidity;BME280_pressure;Samples;Min_cycle;Max_cycle;Signal;HPM_P1;HPM_P2
2022/10/17 00:00:49;;;;;;;6.43;5.47;;;14.90;99.90;;;;;;4989266;28;20284;-86
2022/10/17 00:03:16;;;;;;;8.03;5.43;;;14.90;99.90;;;;;;4996616;28;20664;-86
2022/10/17 00:05:45;;;;;;;9.53;5.87;;;14.90;99.90;;;;;;4987967;28;20227;-86
2022/10/17 00:08:14;;;;;;;7.57;5.57;;;14.80;99.90;;;;;;4991953;28;20293;-86
2022/10/17 00:10:41;;;;;;;7.13;5.50;;;14.80;99.90;;;;;;4990470;28;20201;-86
2022/10/17 00:13:09;;;;;;;7.37;6.10;;;14.90;99.90;;;;;;4998492;28;20200;-86
2022/10/17 00:15:37;;;;;;;7.00;5.77;;;14.90;99.90;;;;;;4986825;28;20215;-86
2022/10/17 00:18:03;;;;;;;8.63;6.00;;;15.00;99.90;;;;;;4983201;28;20259;-86
2022/10/17 00:20:33;;;;;;;6.50;5.80;;;14.90;99.90;;;;;;4991883;28;20285;-86
2022/10/17 00:23:00;;;;;;;7.10;5.47;;;14.90;99.90;;;;;;4992707;28;20212;-86
2022/10/17 00:25:27;;;;;;;7.20;5.47;;;15.00;99.90;;;;;;4991255;28;20233;-86
2022/10/17 00:27:54;;;;;;;8.40;5.73;;;14.90;99.90;;;;;;4992606;28;20214;-85
2022/10/17 00:30:20;;;;;;;6.80;6.03;;;14.90;99.90;;;;;;4990277;28;20314;-85
2022/10/17 00:32:47;;;;;;;7.97;5.43;;;15.00;99.90;;;;;;4994876;28;20240;-85
2022/10/17 00:35:14;;;;;;;7.03;5.83;;;15.00;99.90;;;;;;4992261;28;20299;-86
2022/10/17 00:37:41;;;;;;;8.00;5.67;;;15.00;99.90;;;;;;5009382;28;20215;-86
2022/10/17 00:40:09;;;;;;;12.13;5.87;;;15.00;99.90;;;;;;4994370;28;20280;-86
2022/10/17 00:42:35;;;;;;;6.00;5.40;;;14.90;99.90;;;;;;4993999;28;20205;-86
2022/10/17 00:45:05;;;;;;;8.60;5.50;;;15.00;99.90;;;;;;4993566;28;20724;-86
2022/10/17 00:47:33;;;;;;;7.67;5.70;;;15.00;99.90;;;;;;4995193;28;20652;-86
2022/10/17 00:50:00;;;;;;;6.83;6.10;;;14.90;99.90;;;;;;4984389;28;20245;-87
2022/10/17 00:52:29;;;;;;;7.83;5.60;;;15.00;99.90;;;;;;5006234;28;20290;-86
2022/10/17 00:55:07;;;;;;;6.97;5.70;;;14.90;99.90;;;;;;4993761;28;20210;-86
2022/10/17 00:57:36;;;;;;;10.97;6.20;;;15.00;99.90;;;;;;5005219;28;20221;-85
2022/10/17 01:00:06;;;;;;;8.80;5.37;;;15.00;99.90;;;;;;4992135;28;20570;-85
2022/10/17 01:02:33;;;;;;;7.90;5.10;;;15.00;99.90;;;;;;4975619;28;20648;-86
2022/10/17 01:05:01;;;;;;;6.83;5.77;;;14.90;99.90;;;;;;4992437;28;20203;-87
2022/10/17 01:07:29;;;;;;;10.83;5.90;;;15.00;99.90;;;;;;4991975;28;20541;-85
2022/10/17 01:10:04;;;;;;;7.90;5.97;;;15.00;99.90;;;;;;5005100;28;20282;-86
2022/10/17 01:12:58;;;;;;;6.30;5.63;;;15.00;99.90;;;;;;4999668;28;20250;-86
2022/10/17 01:15:31;;;;;;;8.93;6.60;;;15.00;99.90;;;;;;4989765;28;20200;-86
2022/10/17 01:18:16;;;;;;;6.37;5.67;;;15.10;99.90;;;;;;4992283;28;20647;-85
2022/10/17 01:20:58;;;;;;;8.67;6.23;;;15.10;99.90;;;;;;5007456;28;20207;-86
2022/10/17 01:23:40;;;;;;;7.50;6.10;;;15.10;99.90;;;;;;5007157;28;20543;-86
2022/10/17 01:26:34;;;;;;;7.30;6.10;;;15.10;99.90;;;;;;5001335;28;20581;-85
2022/10/17 01:29:38;;;;;;;10.53;6.87;;;15.00;99.90;;;;;;5004466;28;20203;-85
2022/10/17 01:32:26;;;;;;;6.93;6.23;;;15.00;99.90;;;;;;4984874;28;20285;-85
2022/10/17 01:35:19;;;;;;;7.97;6.40;;;15.10;99.90;;;;;;4993919;28;20211;-85
2022/10/17 01:37:57;;;;;;;8.10;6.67;;;15.20;99.90;;;;;;4993441;28;20662;-86
2022/10/17 01:40:29;;;;;;;7.90;6.40;;;15.20;99.90;;;;;;4982785;28;20229;-86
2022/10/17 01:43:20;;;;;;;7.77;6.23;;;15.30;99.90;;;;;;4992905;28;20207;-86
2022/10/17 01:46:15;;;;;;;8.23;6.33;;;15.20;99.90;;;;;;4993776;28;20211;-85
2022/10/17 01:48:44;;;;;;;8.30;7.07;;;15.30;99.90;;;;;;4993889;28;20237;-85
2022/10/17 01:51:27;;;;;;;7.67;6.03;;;15.30;99.90;;;;;;4993514;28;20238;-85
2022/10/17 01:54:19;;;;;;;10.60;7.67;;;15.30;99.90;;;;;;4988696;28;20571;-85
2022/10/17 01:56:52;;;;;;;7.57;5.83;;;15.40;99.90;;;;;;4990138;28;20217;-85
2022/10/17 01:59:23;;;;;;;8.10;6.17;;;15.40;99.90;;;;;;4998133;28;20222;-85
2022/10/17 02:01:52;;;;;;;7.70;6.50;;;15.40;99.90;;;;;;5006182;28;20205;-85
2022/10/17 02:04:20;;;;;;;7.73;6.33;;;15.40;99.90;;;;;;4991652;28;22683;-85
2022/10/17 02:06:46;;;;;;;11.83;7.10;;;15.50;99.90;;;;;;5003873;28;20191;-87
2022/10/17 02:09:27;;;;;;;7.13;6.37;;;15.60;99.90;;;;;;4987472;28;20207;-85
2022/10/17 02:12:06;;;;;;;8.63;6.67;;;15.50;99.90;;;;;;4991523;28;20219;-85
2022/10/17 02:14:57;;;;;;;8.13;6.40;;;15.50;99.90;;;;;;4989074;28;20227;-86
2022/10/17 02:17:43;;;;;;;9.13;6.60;;;15.60;99.90;;;;;;4988199;28;20204;-85
2022/10/17 02:20:30;;;;;;;9.37;6.77;;;15.60;99.90;;;;;;4989768;28;20212;-85
2022/10/17 02:23:07;;;;;;;8.23;6.43;;;15.60;99.90;;;;;;5004407;28;20191;-86
2022/10/17 02:25:46;;;;;;;9.50;7.20;;;15.70;99.90;;;;;;5005398;28;20341;-85
2022/10/17 02:28:32;;;;;;;8.10;5.93;;;15.70;99.90;;;;;;4990060;28;20540;-86
2022/10/17 02:31:08;;;;;;;12.50;6.30;;;15.80;99.90;;;;;;4990408;28;20217;-87
2022/10/17 02:33:48;;;;;;;7.17;6.27;;;15.80;99.90;;;;;;4991109;28;20209;-87
2022/10/17 02:36:24;;;;;;;10.03;6.33;;;15.80;99.90;;;;;;5004909;28;20203;-86
2022/10/17 02:38:53;;;;;;;10.80;6.53;;;15.90;99.90;;;;;;4982617;28;20574;-85
2022/10/17 02:41:22;;;;;;;8.03;6.77;;;15.90;99.90;;;;;;4987209;28;20209;-85
2022/10/17 02:43:51;;;;;;;8.70;6.60;;;15.90;99.90;;;;;;4990122;28;20215;-85
2022/10/17 02:46:22;;;;;;;7.77;6.47;;;15.90;99.90;;;;;;4989989;28;20204;-86
2022/10/17 02:48:56;;;;;;;8.57;6.30;;;15.90;99.90;;;;;;4990641;28;20203;-85
2022/10/17 02:51:43;;;;;;;7.87;6.07;;;15.90;99.90;;;;;;4989828;28;20599;-85
2022/10/17 02:54:30;;;;;;;7.93;7.10;;;15.90;99.90;;;;;;4980030;28;20198;-84
2022/10/17 02:57:04;;;;;;;8.27;6.17;;;15.90;99.90;;;;;;4985597;28;20311;-85
2022/10/17 02:59:34;;;;;;;9.00;6.87;;;16.00;99.90;;;;;;4993786;28;20269;-86
2022/10/17 03:02:05;;;;;;;9.97;6.47;;;15.90;99.90;;;;;;4983409;28;20223;-86
2022/10/17 03:04:33;;;;;;;9.03;6.23;;;15.90;99.90;;;;;;4987269;28;20204;-85
2022/10/17 03:07:00;;;;;;;8.50;6.67;;;15.90;99.90;;;;;;4989285;28;20642;-86
2022/10/17 03:09:26;;;;;;;7.73;6.27;;;16.00;99.90;;;;;;4982703;28;20199;-86
2022/10/17 03:11:54;;;;;;;8.60;6.43;;;16.00;99.90;;;;;;4970382;28;20212;-85
2022/10/17 03:14:21;;;;;;;7.67;5.87;;;16.00;99.90;;;;;;4984912;28;20664;-85
2022/10/17 03:16:47;;;;;;;6.20;5.60;;;16.10;99.90;;;;;;4991158;28;20747;-85
2022/10/17 03:19:14;;;;;;;8.43;5.83;;;16.00;99.90;;;;;;5002537;28;20234;-86
2022/10/17 03:21:41;;;;;;;6.73;6.03;;;16.00;99.90;;;;;;4982718;28;20196;-85
2022/10/17 03:24:08;;;;;;;7.33;5.57;;;16.10;99.90;;;;;;4972242;28;20210;-85
2022/10/17 03:26:35;;;;;;;6.70;6.00;;;16.10;99.90;;;;;;4988844;28;20200;-86
2022/10/17 03:29:02;;;;;;;7.27;5.73;;;16.10;99.90;;;;;;4987565;28;20210;-85
2022/10/17 03:31:29;;;;;;;7.17;5.87;;;16.10;99.90;;;;;;4985815;28;20250;-85
2022/10/17 03:33:57;;;;;;;7.20;6.13;;;16.20;99.90;;;;;;4991304;28;20200;-85
2022/10/17 03:36:24;;;;;;;8.77;5.93;;;16.20;99.90;;;;;;4987738;28;20239;-85
2022/10/17 03:38:54;;;;;;;6.77;6.07;;;16.20;99.90;;;;;;4984912;28;20228;-85
2022/10/17 03:41:21;;;;;;;11.97;5.90;;;16.30;99.90;;;;;;4982982;28;20200;-86
2022/10/17 03:43:48;;;;;;;9.07;5.37;;;16.20;99.90;;;;;;4974559;28;20228;-85
2022/10/17 03:46:15;;;;;;;6.20;4.93;;;16.20;99.90;;;;;;4981086;28;20212;-85
2022/10/17 03:48:44;;;;;;;6.80;6.10;;;16.20;99.90;;;;;;4956515;28;20207;-85
2022/10/17 03:51:11;;;;;;;10.27;5.73;;;16.20;99.90;;;;;;4970458;28;20257;-84
2022/10/17 03:53:38;;;;;;;10.30;5.90;;;16.20;99.90;;;;;;4989643;28;20720;-85
2022/10/17 03:56:18;;;;;;;6.67;5.87;;;16.30;99.90;;;;;;4985898;28;20206;-84
2022/10/17 03:58:45;;;;;;;7.27;5.93;;;16.30;99.90;;;;;;4988227;28;20215;-84
2022/10/17 04:01:14;;;;;;;8.63;6.27;;;16.30;99.90;;;;;;5005209;28;20242;-86
2022/10/17 04:03:41;;;;;;;8.53;5.30;;;16.30;99.90;;;;;;4988537;28;20208;-85
2022/10/17 04:06:11;;;;;;;6.00;5.23;;;16.30;99.90;;;;;;4995961;28;20199;-85
2022/10/17 04:08:38;;;;;;;7.53;5.90;;;16.30;99.90;;;;;;4996648;28;20208;-86
2022/10/17 04:11:09;;;;;;;7.10;5.13;;;16.30;99.90;;;;;;4995961;28;20213;-86
2022/10/17 04:13:36;;;;;;;10.00;5.47;;;16.30;99.90;;;;;;4994014;28;20679;-84
2022/10/17 04:16:06;;;;;;;9.07;5.73;;;16.40;99.90;;;;;;5011264;28;20243;-85
2022/10/17 04:18:33;;;;;;;8.17;5.30;;;16.40;99.90;;;;;;4993737;28;20564;-85
2022/10/17 04:21:02;;;;;;;6.93;5.60;;;16.40;99.90;;;;;;4995059;28;20316;-85
2022/10/17 04:23:29;;;;;;;8.17;5.30;;;16.50;99.90;;;;;;4995500;28;20288;-85
2022/10/17 04:25:57;;;;;;;7.17;4.80;;;16.50;99.90;;;;;;4993838;28;20232;-84
2022/10/17 04:28:25;;;;;;;6.93;4.70;;;16.50;99.90;;;;;;4994778;28;20201;-86
2022/10/17 04:31:19;;;;;;;6.77;5.33;;;16.40;99.90;;;;;;4991081;28;20211;-84
2022/10/17 04:33:47;;;;;;;7.83;5.73;;;16.40;99.90;;;;;;4984305;28;20219;-84
2022/10/17 04:36:17;;;;;;;7.27;5.57;;;16.40;99.90;;;;;;4991127;28;20284;-84
2022/10/17 04:38:44;;;;;;;9.40;5.60;;;16.40;99.90;;;;;;4989203;28;20231;-86
2022/10/17 04:41:13;;;;;;;7.60;4.73;;;16.40;99.90;;;;;;4993218;28;20677;-86
2022/10/17 04:43:41;;;;;;;7.73;5.07;;;16.40;99.90;;;;;;4995819;28;20200;-85
2022/10/17 04:46:13;;;;;;;7.87;6.03;;;16.40;99.90;;;;;;5004188;28;20813;-85
2022/10/17 04:48:41;;;;;;;7.83;5.77;;;16.40;99.90;;;;;;4993762;28;20264;-85
2022/10/17 04:51:14;;;;;;;8.93;5.83;;;16.40;99.90;;;;;;4991580;28;20239;-86
2022/10/17 04:53:41;;;;;;;8.27;5.50;;;16.40;99.90;;;;;;4989126;28;20564;-85
2022/10/17 04:56:11;;;;;;;11.40;5.93;;;16.40;99.90;;;;;;5005980;28;20217;-84
2022/10/17 04:58:39;;;;;;;7.23;5.70;;;16.30;99.90;;;;;;5002492;28;20215;-88
2022/10/17 05:01:07;;;;;;;7.70;5.73;;;16.30;99.90;;;;;;4993105;28;20326;-84
2022/10/17 05:03:35;;;;;;;9.47;5.53;;;16.40;99.90;;;;;;4992156;28;20649;-83
2022/10/17 05:06:05;;;;;;;6.03;5.43;;;16.40;99.90;;;;;;4996437;28;20686;-85
2022/10/17 05:08:31;;;;;;;10.00;5.70;;;16.40;99.90;;;;;;4996757;28;20201;-84
2022/10/17 05:10:58;;;;;;;7.27;5.40;;;16.30;99.90;;;;;;4996286;28;20546;-84
2022/10/17 05:13:25;;;;;;;10.13;5.20;;;16.40;99.90;;;;;;4992500;28;20288;-85
2022/10/17 05:15:52;;;;;;;9.30;5.63;;;16.40;99.90;;;;;;4991605;28;20303;-87
2022/10/17 05:18:19;;;;;;;9.73;5.87;;;16.40;99.90;;;;;;4992135;28;20211;-86
2022/10/17 05:20:46;;;;;;;10.27;6.00;;;16.40;99.90;;;;;;4991999;28;20741;-85
2022/10/17 05:23:12;;;;;;;7.20;5.37;;;16.40;99.90;;;;;;4999362;28;20203;-86
2022/10/17 05:25:40;;;;;;;9.97;5.57;;;16.40;99.90;;;;;;4998059;28;20298;-86
2022/10/17 05:28:07;;;;;;;7.30;5.17;;;16.40;99.90;;;;;;4991749;28;20207;-88
2022/10/17 05:30:35;;;;;;;6.67;5.43;;;16.40;99.90;;;;;;4994953;28;20229;-86
2022/10/17 05:33:03;;;;;;;10.80;5.07;;;16.40;99.90;;;;;;5001869;28;20204;-85
2022/10/17 05:35:30;;;;;;;7.30;5.40;;;16.40;99.90;;;;;;4992916;28;20202;-88
2022/10/17 05:37:57;;;;;;;7.93;5.53;;;16.40;99.90;;;;;;4987773;28;20646;-85
2022/10/17 05:40:24;;;;;;;9.50;6.03;;;16.50;99.90;;;;;;4971026;28;20221;-87
2022/10/17 05:42:51;;;;;;;7.73;5.07;;;16.50;99.90;;;;;;4976510;28;20295;-87
2022/10/17 05:45:18;;;;;;;8.77;5.47;;;16.40;99.90;;;;;;4975108;28;20263;-87
2022/10/17 05:47:48;;;;;;;8.52;5.25;;;16.50;99.90;;;;;;4741245;28;10000561;-86
2022/10/17 05:50:15;;;;;;;8.33;5.63;;;16.50;99.90;;;;;;4983347;28;20452;-87
2022/10/17 05:52:42;;;;;;;8.33;5.63;;;16.50;99.90;;;;;;4986187;28;20252;-87
2022/10/17 05:55:12;;;;;;;9.77;5.10;;;16.50;99.90;;;;;;4986350;28;20220;-85
2022/10/17 05:57:38;;;;;;;10.57;5.33;;;16.50;99.90;;;;;;4995463;28;20205;-86
2022/10/17 06:00:06;;;;;;;9.30;5.37;;;16.50;99.90;;;;;;4978864;28;20670;-85
2022/10/17 06:02:33;;;;;;;6.13;4.93;;;16.50;99.90;;;;;;4992886;28;20685;-85
2022/10/17 06:05:00;;;;;;;5.97;5.17;;;16.50;99.90;;;;;;4993767;28;20261;-83
2022/10/17 06:07:27;;;;;;;7.27;5.53;;;16.60;99.90;;;;;;4997978;28;20197;-83
2022/10/17 06:09:53;;;;;;;6.27;5.40;;;16.60;99.90;;;;;;4996592;28;20219;-84
2022/10/17 06:12:20;;;;;;;7.27;5.47;;;16.60;99.90;;;;;;4995489;28;20289;-84
2022/10/17 06:14:47;;;;;;;7.60;4.70;;;16.70;99.90;;;;;;5009697;28;20210;-86
2022/10/17 06:17:14;;;;;;;9.03;5.73;;;16.70;99.90;;;;;;4984899;28;20200;-84
2022/10/17 06:19:43;;;;;;;8.50;5.70;;;16.70;99.90;;;;;;4987656;28;20214;-83
2022/10/17 06:22:11;;;;;;;9.23;5.30;;;16.80;99.90;;;;;;4989455;28;20240;-85
2022/10/17 06:24:39;;;;;;;7.13;4.70;;;16.80;99.90;;;;;;4991960;28;20680;-83
2022/10/17 06:27:06;;;;;;;8.70;5.30;;;16.80;99.90;;;;;;4973491;28;20209;-85
2022/10/17 06:29:37;;;;;;;7.07;4.80;;;16.80;99.90;;;;;;4969641;28;20196;-85
2022/10/17 06:32:05;;;;;;;6.80;4.83;;;16.80;99.90;;;;;;4984455;28;20281;-85
2022/10/17 06:34:36;;;;;;;7.30;4.80;;;16.90;99.90;;;;;;4990558;28;20205;-84
2022/10/17 06:37:03;;;;;;;6.57;5.50;;;16.90;99.90;;;;;;4974556;28;20298;-84
2022/10/17 06:39:32;;;;;;;6.43;5.13;;;16.90;99.90;;;;;;4989119;28;20225;-85
2022/10/17 06:42:00;;;;;;;7.53;5.10;;;16.90;99.90;;;;;;4987329;28;20754;-86
2022/10/17 06:44:30;;;;;;;6.43;4.53;;;16.90;99.90;;;;;;5005619;28;20204;-83
2022/10/17 06:47:01;;;;;;;6.53;4.43;;;17.00;99.90;;;;;;4990051;28;20229;-84
2022/10/17 06:49:35;;;;;;;8.13;5.17;;;17.00;99.90;;;;;;5099844;27;20552;-52
2022/10/17 06:52:02;;;;;;;6.30;4.30;;;17.10;99.90;;;;;;5084537;28;20221;-53
2022/10/17 06:54:28;;;;;;;11.47;5.33;;;17.10;99.90;;;;;;5081962;28;20198;-53
2022/10/17 06:56:55;;;;;;;8.70;5.57;;;17.10;99.90;;;;;;5083422;28;20196;-53
2022/10/17 06:59:22;;;;;;;8.17;5.07;;;17.10;99.90;;;;;;5088726;28;20220;-51
2022/10/17 07:01:49;;;;;;;4.97;4.23;;;17.20;99.90;;;;;;5087714;28;20232;-53
2022/10/17 07:04:16;;;;;;;6.30;4.67;;;17.20;99.90;;;;;;5077093;28;20653;-51
2022/10/17 07:06:43;;;;;;;7.27;5.00;;;17.20;99.90;;;;;;5087371;28;20200;-52
2022/10/17 07:09:10;;;;;;;6.13;4.67;;;17.20;99.90;;;;;;5086017;28;20222;-53
2022/10/17 07:11:37;;;;;;;5.77;4.17;;;17.20;99.90;;;;;;5068751;28;20207;-53
2022/10/17 07:14:03;;;;;;;7.70;4.80;;;17.30;99.90;;;;;;5060292;28;20286;-52
2022/10/17 07:16:30;;;;;;;5.97;4.40;;;17.30;99.90;;;;;;5062889;28;20203;-52
2022/10/17 07:18:57;;;;;;;6.77;4.53;;;17.30;99.90;;;;;;5064695;28;20206;-52
2022/10/17 07:21:24;;;;;;;5.67;4.87;;;17.40;99.90;;;;;;5064844;28;20212;-53
2022/10/17 07:23:51;;;;;;;5.07;4.30;;;17.40;99.90;;;;;;5073506;28;20244;-53
2022/10/17 07:26:19;;;;;;;4.90;4.37;;;17.40;99.90;;;;;;5065378;28;20658;-52
2022/10/17 07:28:50;;;;;;;6.90;4.40;;;17.40;99.90;;;;;;5067034;28;20240;-52
2022/10/17 07:31:19;;;;;;;7.93;4.77;;;17.40;99.90;;;;;;5072321;28;20198;-51
2022/10/17 07:33:46;;;;;;;5.03;4.37;;;17.40;99.90;;;;;;5078450;28;20294;-53
2022/10/17 07:36:18;;;;;;;6.83;5.23;;;17.30;99.90;;;;;;5064683;28;20208;-55
2022/10/17 07:38:45;;;;;;;6.77;4.80;;;17.30;99.90;;;;;;5057174;28;20287;-53
2022/10/17 07:41:12;;;;;;;7.53;4.50;;;17.30;99.90;;;;;;5059172;28;20292;-54
2022/10/17 07:43:46;;;;;;;12.00;4.90;;;17.30;99.90;;;;;;5062581;28;20339;-53
2022/10/17 07:46:13;;;;;;;7.27;4.93;;;17.20;99.90;;;;;;5063615;28;20517;-53
2022/10/17 07:48:40;;;;;;;5.57;4.70;;;17.20;99.90;;;;;;5056419;28;20240;-55
2022/10/17 07:51:08;;;;;;;10.53;5.50;;;17.20;99.90;;;;;;5058317;28;20573;-52
2022/10/17 07:53:37;;;;;;;14.33;5.40;;;17.10;99.90;;;;;;5055203;28;20195;-54
2022/10/17 07:56:08;;;;;;;7.87;4.97;;;17.00;99.90;;;;;;5060327;28;22131;-54
2022/10/17 07:58:36;;;;;;;9.90;6.17;;;17.00;99.90;;;;;;5056177;28;20202;-53
2022/10/17 08:01:06;;;;;;;9.47;5.93;;;16.90;99.90;;;;;;5035061;28;20211;-55
2022/10/17 08:03:47;;;;;;;6.50;5.17;;;16.90;99.90;;;;;;5037850;28;20620;-52
2022/10/17 08:06:14;;;;;;;11.20;5.80;;;16.90;99.90;;;;;;5042309;28;20257;-53
2022/10/17 08:08:41;;;;;;;8.00;5.33;;;16.90;99.90;;;;;;5042838;28;21013;-55
2022/10/17 08:11:11;;;;;;;8.63;5.30;;;16.90;99.90;;;;;;5034441;28;20228;-54
2022/10/17 08:13:39;;;;;;;6.17;5.00;;;16.90;99.90;;;;;;5036324;28;20216;-52
2022/10/17 08:16:08;;;;;;;9.33;5.40;;;16.90;99.90;;;;;;5036874;28;20206;-52
2022/10/17 08:18:37;;;;;;;9.20;4.20;;;16.90;99.90;;;;;;5045762;28;20208;-55
2022/10/17 08:21:07;;;;;;;6.97;4.17;;;16.90;99.90;;;;;;5043910;28;20222;-52
2022/10/17 08:23:35;;;;;;;11.00;4.03;;;16.90;99.90;;;;;;5043075;28;20301;-53
2022/10/17 08:26:05;;;;;;;5.83;4.43;;;16.80;99.90;;;;;;5049151;28;20206;-54
2022/10/17 08:28:34;;;;;;;8.53;4.63;;;16.80;99.90;;;;;;5042674;28;20575;-52
2022/10/17 08:31:07;;;;;;;10.53;4.80;;;16.80;99.90;;;;;;5048719;28;21059;-51
2022/10/17 08:33:33;;;;;;;5.93;4.90;;;16.80;99.90;;;;;;5048992;28;20289;-58
2022/10/17 08:36:02;;;;;;;7.07;4.97;;;16.80;99.90;;;;;;5042610;28;20266;-58
2022/10/17 08:38:31;;;;;;;7.57;4.90;;;16.90;99.90;;;;;;5044850;28;20206;-51
2022/10/17 08:41:05;;;;;;;7.53;4.90;;;16.80;99.90;;;;;;5058422;28;20809;-54
2022/10/17 08:43:59;;;;;;;8.00;5.20;;;16.80;99.90;;;;;;5047721;28;20216;-60
2022/10/17 08:46:37;;;;;;;10.77;5.00;;;16.80;99.90;;;;;;5055817;28;20234;-58
2022/10/17 08:49:13;;;;;;;6.53;4.93;;;16.80;99.90;;;;;;5056598;28;20348;-58
2022/10/17 08:51:50;;;;;;;7.83;5.17;;;16.80;99.90;;;;;;5042949;28;21488;-55
2022/10/17 08:54:25;;;;;;;8.87;5.30;;;16.80;99.90;;;;;;5046254;28;20695;-53
2022/10/17 08:56:54;;;;;;;8.83;5.33;;;16.80;99.90;;;;;;5045835;28;20652;-55
2022/10/17 08:59:27;;;;;;;11.20;5.20;;;16.90;99.90;;;;;;5045571;28;20213;-54
2022/10/17 09:02:25;;;;;;;7.60;5.33;;;16.90;99.90;;;;;;5036667;28;20673;-55
2022/10/17 09:05:02;;;;;;;7.77;5.47;;;16.90;99.90;;;;;;5040245;28;20209;-55
2022/10/17 09:07:42;;;;;;;9.83;5.40;;;16.90;99.90;;;;;;5051120;28;20294;-55
2022/10/17 09:10:24;;;;;;;7.57;5.00;;;16.90;99.90;;;;;;5045651;28;20211;-61
2022/10/17 09:13:15;;;;;;;7.40;5.17;;;16.90;99.90;;;;;;5044710;28;20237;-58
2022/10/17 09:15:45;;;;;;;11.60;5.97;;;16.90;99.90;;;;;;5043989;28;20193;-62
2022/10/17 09:18:28;;;;;;;6.47;5.10;;;16.80;99.90;;;;;;5042235;28;20210;-60
2022/10/17 09:21:17;;;;;;;9.80;5.50;;;16.70;99.90;;;;;;5047291;28;20212;-61
2022/10/17 09:23:50;;;;;;;7.40;5.07;;;16.80;99.90;;;;;;5045217;28;20293;-55
2022/10/17 09:26:35;;;;;;;8.70;5.33;;;16.70;99.90;;;;;;5048857;28;20569;-55
2022/10/17 09:29:10;;;;;;;8.30;6.23;;;16.70;99.90;;;;;;5043930;28;20216;-55
2022/10/17 09:31:44;;;;;;;8.80;6.77;;;16.80;99.90;;;;;;5042064;28;20206;-55
2022/10/17 09:34:12;;;;;;;10.47;6.57;;;16.80;99.90;;;;;;5040605;28;20194;-56
2022/10/17 09:36:39;;;;;;;9.13;5.10;;;16.80;99.90;;;;;;5036723;28;20211;-54
2022/10/17 09:39:19;;;;;;;7.13;5.30;;;16.90;99.90;;;;;;5049765;28;20219;-55
2022/10/17 09:41:54;;;;;;;6.80;5.53;;;16.80;99.90;;;;;;5025501;28;20196;-54
2022/10/17 09:44:23;;;;;;;11.67;5.40;;;16.80;99.90;;;;;;5038959;28;20201;-56
2022/10/17 09:47:04;;;;;;;6.17;4.93;;;16.90;99.90;;;;;;5040540;28;20815;-54
2022/10/17 09:49:37;;;;;;;6.83;5.60;;;16.90;99.90;;;;;;5047593;28;20234;-54
2022/10/17 09:52:13;;;;;;;7.90;5.10;;;16.90;99.90;;;;;;5042352;28;20332;-55
2022/10/17 09:54:46;;;;;;;8.20;5.10;;;16.90;99.90;;;;;;5043440;28;20536;-54
2022/10/17 09:57:15;;;;;;;6.30;4.90;;;16.90;99.90;;;;;;5048858;28;20194;-55
2022/10/17 09:59:46;;;;;;;7.47;4.87;;;16.90;99.90;;;;;;5045532;28;20209;-56
2022/10/17 10:02:15;;;;;;;7.90;5.50;;;17.00;99.90;;;;;;5045671;28;20198;-54
2022/10/17 10:04:56;;;;;;;8.87;5.37;;;16.90;99.90;;;;;;5044888;28;20208;-55
2022/10/17 10:07:37;;;;;;;8.03;5.50;;;16.90;99.90;;;;;;5056639;28;20566;-55
2022/10/17 10:10:23;;;;;;;9.37;5.77;;;16.90;99.90;;;;;;5037794;28;20243;-55
2022/10/17 10:13:04;;;;;;;7.07;5.50;;;16.90;99.90;;;;;;5046153;28;20218;-55
2022/10/17 10:15:34;;;;;;;6.30;5.10;;;17.00;99.90;;;;;;5042238;28;20218;-56
2022/10/17 10:18:01;;;;;;;10.97;6.07;;;17.00;99.90;;;;;;5039757;28;20677;-57
2022/10/17 10:20:34;;;;;;;11.50;6.10;;;17.10;99.90;;;;;;5045183;28;20603;-55
2022/10/17 10:23:17;;;;;;;7.30;5.40;;;17.00;99.90;;;;;;5046507;28;20234;-55
2022/10/17 10:25:56;;;;;;;11.77;5.67;;;17.10;99.90;;;;;;5038208;28;20209;-57
2022/10/17 10:28:28;;;;;;;9.53;6.13;;;17.10;99.90;;;;;;5037620;28;20697;-56
2022/10/17 10:30:57;;;;;;;7.27;5.77;;;17.10;99.90;;;;;;5041597;28;20189;-55
2022/10/17 10:33:28;;;;;;;9.00;5.97;;;17.00;99.90;;;;;;5044315;28;20232;-55
2022/10/17 10:36:02;;;;;;;10.17;6.30;;;17.00;99.90;;;;;;5045068;28;20285;-54
2022/10/17 10:38:31;;;;;;;8.33;6.47;;;17.00;99.90;;;;;;5046034;28;20236;-54
2022/10/17 10:41:01;;;;;;;7.70;6.50;;;17.00;99.90;;;;;;5048137;28;20677;-54
2022/10/17 10:43:42;;;;;;;9.47;6.73;;;17.00;99.90;;;;;;5041338;28;20216;-56
2022/10/17 10:46:25;;;;;;;7.93;6.47;;;17.10;99.90;;;;;;5037249;28;20306;-55
2022/10/17 10:49:02;;;;;;;10.27;6.47;;;17.10;99.90;;;;;;5040800;28;20330;-54
2022/10/17 10:51:38;;;;;;;8.30;6.53;;;17.10;99.90;;;;;;5045247;28;20219;-55
2022/10/17 10:54:16;;;;;;;9.00;6.20;;;17.10;99.90;;;;;;5042515;28;20238;-54
2022/10/17 10:56:52;;;;;;;7.40;5.87;;;17.00;99.90;;;;;;5045631;28;20205;-54
2022/10/17 10:59:27;;;;;;;9.60;6.80;;;17.00;99.90;;;;;;5040216;28;20230;-54
2022/10/17 11:02:31;;;;;;;8.43;5.80;;;17.00;99.90;;;;;;5038488;28;20206;-54
2022/10/17 11:05:11;;;;;;;11.33;6.23;;;17.10;99.90;;;;;;5045162;28;20279;-56
2022/10/17 11:07:54;;;;;;;8.47;6.10;;;17.20;99.90;;;;;;5043516;28;20201;-56
2022/10/17 11:10:34;;;;;;;10.97;6.50;;;17.20;99.90;;;;;;5042652;28;20316;-56
2022/10/17 11:13:12;;;;;;;7.93;5.73;;;17.20;99.90;;;;;;5044146;28;20194;-56
2022/10/17 11:15:43;;;;;;;12.33;6.30;;;17.10;99.90;;;;;;5043383;28;20594;-55
2022/10/17 11:18:31;;;;;;;8.60;6.13;;;17.10;99.90;;;;;;5042318;28;20606;-57
2022/10/17 11:21:04;;;;;;;7.57;6.07;;;17.20;99.90;;;;;;5042056;28;20222;-55
2022/10/17 11:23:38;;;;;;;10.73;6.27;;;17.20;99.90;;;;;;5045392;28;20202;-55
2022/10/17 11:26:12;;;;;;;11.17;6.50;;;17.20;99.90;;;;;;5041886;28;20555;-57
2022/10/17 11:28:39;;;;;;;9.60;6.23;;;17.20;99.90;;;;;;5040783;28;20572;-55
2022/10/17 11:31:11;;;;;;;7.77;6.03;;;17.20;99.90;;;;;;5048393;28;20211;-55
2022/10/17 11:33:56;;;;;;;7.20;5.87;;;17.20;99.90;;;;;;5046215;28;20208;-55
2022/10/17 11:36:31;;;;;;;9.40;6.10;;;17.30;99.90;;;;;;5038251;28;20227;-56
2022/10/17 11:39:06;;;;;;;9.33;6.67;;;17.10;99.90;;;;;;5050066;28;20210;-56
2022/10/17 11:41:45;;;;;;;9.60;6.50;;;17.10;99.90;;;;;;5044671;28;20198;-55
2022/10/17 11:44:20;;;;;;;9.73;5.97;;;17.20;99.90;;;;;;5047648;28;20197;-56
2022/10/17 11:46:55;;;;;;;9.47;5.87;;;17.20;99.90;;;;;;5043972;28;20197;-54
2022/10/17 11:49:28;;;;;;;10.80;6.67;;;17.20;99.90;;;;;;5040223;28;20237;-53
2022/10/17 11:52:14;;;;;;;6.87;6.17;;;17.30;99.90;;;;;;5048147;28;20221;-52
2022/10/17 11:55:10;;;;;;;7.70;6.10;;;17.30;99.90;;;;;;5043868;28;20317;-52
2022/10/17 11:57:44;;;;;;;9.37;6.17;;;17.30;99.90;;;;;;5043742;28;20218;-51
2022/10/17 12:00:48;;;;;;;11.80;6.27;;;17.40;99.90;;;;;;5052626;28;20200;-52
2022/10/17 12:03:27;;;;;;;8.13;6.37;;;17.40;99.90;;;;;;5041554;28;20296;-51
2022/10/17 12:06:20;;;;;;;11.17;6.97;;;17.50;99.90;;;;;;5045748;28;20194;-55
2022/10/17 12:09:05;;;;;;;8.00;6.47;;;17.50;99.90;;;;;;5043470;28;20217;-52
2022/10/17 12:11:49;;;;;;;7.97;6.23;;;17.50;99.90;;;;;;5045285;28;20226;-53
2022/10/17 12:14:41;;;;;;;8.03;6.50;;;17.40;99.90;;;;;;5043849;28;20303;-55
2022/10/17 12:17:26;;;;;;;7.87;6.20;;;17.40;99.90;;;;;;5042401;28;20226;-54
2022/10/17 12:20:19;;;;;;;8.00;6.60;;;17.50;99.90;;;;;;5040119;28;20733;-55
2022/10/17 12:23:11;;;;;;;9.07;6.77;;;17.40;99.90;;;;;;5047315;28;20207;-52
2022/10/17 12:25:50;;;;;;;9.50;6.57;;;17.30;99.90;;;;;;5040715;28;20558;-53
2022/10/17 12:28:26;;;;;;;6.60;5.90;;;17.50;99.90;;;;;;5044174;28;20203;-51
2022/10/17 12:31:08;;;;;;;8.40;6.93;;;17.40;99.90;;;;;;5041452;28;20241;-54
2022/10/17 12:33:44;;;;;;;10.40;7.00;;;17.40;99.90;;;;;;5038204;28;20192;-52
2022/10/17 12:36:29;;;;;;;11.17;6.40;;;17.40;99.90;;;;;;5045254;28;20559;-54
2022/10/17 12:39:02;;;;;;;10.93;6.70;;;17.40;99.90;;;;;;5037310;28;20212;-53
2022/10/17 12:41:38;;;;;;;11.17;6.87;;;17.40;99.90;;;;;;5043098;28;20227;-53
2022/10/17 12:44:24;;;;;;;10.03;7.10;;;17.40;99.90;;;;;;5050525;28;20206;-54
2022/10/17 12:47:08;;;;;;;8.77;6.80;;;17.40;99.90;;;;;;5046844;28;20343;-51
2022/10/17 12:49:48;;;;;;;11.43;7.93;;;17.50;99.90;;;;;;5037232;28;20623;-55
2022/10/17 12:52:30;;;;;;;8.63;7.17;;;17.50;99.90;;;;;;5042290;28;20209;-56
2022/10/17 12:55:11;;;;;;;11.23;7.67;;;17.50;99.90;;;;;;5039537;28;20288;-54
2022/10/17 12:57:57;;;;;;;10.93;8.47;;;17.40;99.90;;;;;;5042943;28;20579;-53
2022/10/17 13:00:24;;;;;;;12.73;7.87;;;17.50;99.90;;;;;;5048292;28;20277;-55
2022/10/17 13:02:53;;;;;;;9.53;8.17;;;17.50;99.90;;;;;;5041185;28;20200;-53
2022/10/17 13:05:27;;;;;;;11.53;7.90;;;17.40;99.90;;;;;;5046977;28;20211;-54
2022/10/17 13:07:55;;;;;;;11.20;8.03;;;17.50;99.90;;;;;;5043357;28;20668;-54
2022/10/17 13:10:29;;;;;;;11.57;8.53;;;17.40;99.90;;;;;;5047959;28;20570;-53
2022/10/17 13:13:11;;;;;;;9.47;8.37;;;17.40;99.90;;;;;;5040480;28;20562;-52
2022/10/17 13:15:38;;;;;;;14.07;9.13;;;17.40;99.90;;;;;;5049854;28;20196;-53